Terminal Aerodrome Forecast
Issued by NWS

Current Version | Previous Version | Text Only | Print | Product List | Glossary On
Versions: 1 2 3 4 5 6 7 8 9 10 11 12 13 14 15 16 17 18 19 20 21 22 23 24 25 26 27 28 29 30 31 32 33 34 35 36 37
000
FTUS41 KRNK 082320
TAFBCB
TAF
KBCB 082320Z 0900/0924 29009G17KT P6SM SCT250
     FM090600 30011G20KT P6SM BKN035
      TEMPO 0911/0913 6SM -SHSN BKN025
     FM091600 30011G20KT P6SM SCT035
     FM092200 30009KT P6SM SCT250=

USA.gov is the U.S. government's official web portal to all federal, state and local government web resources and services.